createdAt,value
2019-03-26T00:02:30.761Z,99.90
2019-03-26T00:05:02.788Z,99.90
2019-03-26T00:07:35.995Z,99.90
2019-03-26T00:10:08.197Z,99.90
2019-03-26T00:12:40.581Z,99.90
2019-03-26T00:15:12.471Z,99.90
2019-03-26T00:17:44.638Z,99.90
2019-03-26T00:20:16.574Z,99.90
2019-03-26T00:22:48.480Z,99.90
2019-03-26T00:25:20.318Z,99.90
2019-03-26T00:27:52.384Z,99.90
2019-03-26T00:30:24.287Z,99.90
2019-03-26T00:32:56.188Z,99.90
2019-03-26T00:35:28.076Z,99.90
2019-03-26T00:38:00.309Z,99.90
2019-03-26T00:40:32.333Z,99.90
2019-03-26T00:43:04.322Z,99.90
2019-03-26T00:45:36.205Z,99.90
2019-03-26T00:48:07.937Z,99.90
2019-03-26T00:50:39.744Z,99.90
2019-03-26T00:53:11.677Z,99.90
2019-03-26T00:55:43.552Z,99.90
2019-03-26T00:58:15.648Z,99.90
2019-03-26T01:00:47.916Z,99.90
2019-03-26T01:03:21.150Z,99.90
2019-03-26T01:05:53.273Z,99.90
2019-03-26T01:08:25.297Z,99.90
2019-03-26T01:10:57.215Z,99.90
2019-03-26T01:13:29.495Z,99.90
2019-03-26T01:16:01.245Z,99.90
2019-03-26T01:18:34.134Z,99.90
2019-03-26T01:21:06.159Z,99.90
2019-03-26T01:23:38.237Z,99.90
2019-03-26T01:26:10.111Z,99.90
2019-03-26T01:28:41.991Z,99.90
2019-03-26T01:31:13.934Z,99.90
2019-03-26T01:33:46.932Z,99.90
2019-03-26T01:36:37.399Z,99.90
2019-03-26T01:39:11.340Z,99.90
2019-03-26T01:41:43.338Z,99.90
2019-03-26T01:44:15.698Z,99.90
2019-03-26T01:46:47.608Z,99.90
2019-03-26T01:49:20.644Z,99.90
2019-03-26T01:51:52.297Z,99.90
2019-03-26T01:54:24.282Z,99.90
2019-03-26T01:56:56.053Z,99.90
2019-03-26T01:59:28.070Z,99.90
2019-03-26T02:02:00.217Z,99.90
2019-03-26T02:04:32.278Z,99.90
2019-03-26T02:07:04.333Z,99.90
2019-03-26T02:09:37.061Z,99.90
2019-03-26T02:12:09.148Z,99.90
2019-03-26T02:14:41.967Z,99.90
2019-03-26T02:17:13.965Z,99.90
2019-03-26T02:19:47.089Z,99.90
2019-03-26T02:22:19.157Z,99.90
2019-03-26T02:24:51.360Z,99.90
2019-03-26T02:27:23.313Z,99.90
2019-03-26T02:29:55.318Z,99.90
2019-03-26T02:32:27.355Z,99.90
2019-03-26T02:35:16.341Z,99.90
2019-03-26T02:37:32.688Z,99.90
2019-03-26T02:40:04.737Z,99.90
2019-03-26T02:42:36.659Z,99.90
2019-03-26T02:45:10.787Z,99.90
2019-03-26T02:47:42.744Z,99.90
2019-03-26T02:50:14.901Z,99.90
2019-03-26T02:52:46.788Z,99.90
2019-03-26T02:55:20.104Z,99.90
2019-03-26T02:57:52.174Z,99.90
2019-03-26T03:00:24.197Z,99.90
2019-03-26T03:02:56.052Z,99.90
2019-03-26T03:05:35.880Z,99.90
2019-03-26T03:08:20.446Z,99.90
2019-03-26T03:10:52.368Z,99.90
2019-03-26T03:13:24.408Z,99.90
2019-03-26T03:15:56.612Z,99.90
2019-03-26T03:18:28.515Z,99.90
2019-03-26T03:21:00.465Z,99.90
2019-03-26T03:23:32.292Z,99.90
2019-03-26T03:26:05.133Z,99.90
2019-03-26T03:28:37.034Z,99.90
2019-03-26T03:31:10.446Z,99.90
2019-03-26T03:33:42.531Z,99.90
2019-03-26T03:36:14.556Z,99.90
2019-03-26T03:38:46.346Z,99.90
2019-03-26T03:41:18.353Z,99.90
2019-03-26T03:43:50.420Z,99.90
2019-03-26T03:46:23.808Z,99.90
2019-03-26T03:48:55.951Z,99.90
2019-03-26T03:51:30.770Z,99.90
2019-03-26T03:54:02.897Z,99.90
2019-03-26T03:56:38.325Z,99.90
2019-03-26T03:59:12.801Z,99.90
2019-03-26T04:01:44.991Z,99.90
2019-03-26T04:04:16.914Z,99.90
2019-03-26T04:06:49.157Z,99.90
2019-03-26T04:09:21.142Z,99.90
2019-03-26T04:11:54.145Z,99.90
2019-03-26T04:14:25.842Z,99.90
2019-03-26T04:16:57.906Z,99.90
2019-03-26T04:19:29.906Z,99.90
2019-03-26T04:22:01.842Z,99.90
2019-03-26T04:24:33.784Z,99.90
2019-03-26T04:27:07.010Z,99.90
2019-03-26T04:29:38.946Z,99.90
2019-03-26T04:32:10.888Z,99.90
2019-03-26T04:34:42.849Z,99.90
2019-03-26T04:37:15.723Z,99.90
2019-03-26T04:39:47.622Z,99.90
2019-03-26T04:42:19.505Z,99.90
2019-03-26T04:44:51.331Z,99.90
2019-03-26T04:47:23.462Z,99.90
2019-03-26T04:50:14.038Z,99.90
2019-03-26T04:52:46.086Z,99.90
2019-03-26T04:55:18.049Z,99.90
2019-03-26T04:57:49.944Z,99.90
2019-03-26T05:00:22.976Z,99.90
2019-03-26T05:02:55.317Z,99.90
2019-03-26T05:05:27.348Z,99.90
2019-03-26T05:07:59.285Z,99.90
2019-03-26T05:10:31.108Z,99.90
2019-03-26T05:13:04.039Z,99.90
2019-03-26T05:15:36.057Z,99.90
2019-03-26T05:18:08.013Z,99.90
2019-03-26T05:20:39.792Z,99.90
2019-03-26T05:23:11.717Z,99.90
2019-03-26T05:25:43.680Z,99.90
2019-03-26T05:28:16.428Z,99.90
2019-03-26T05:30:48.517Z,99.90
2019-03-26T05:33:20.577Z,99.90
2019-03-26T05:35:52.751Z,99.90
2019-03-26T05:38:24.926Z,99.90
2019-03-26T05:40:56.716Z,99.90
2019-03-26T05:43:28.997Z,99.90
2019-03-26T05:46:00.928Z,99.90
2019-03-26T05:48:32.977Z,99.90
2019-03-26T05:51:04.871Z,99.90
2019-03-26T05:53:36.958Z,99.90
2019-03-26T05:56:08.896Z,99.90
2019-03-26T05:58:40.961Z,99.90
2019-03-26T06:01:13.081Z,99.90
2019-03-26T06:03:45.210Z,99.90
2019-03-26T06:06:17.284Z,99.90
2019-03-26T06:08:49.255Z,99.90
2019-03-26T06:11:21.080Z,99.90
2019-03-26T06:13:53.197Z,99.90
2019-03-26T06:16:37.645Z,99.90
2019-03-26T06:18:59.233Z,99.90
2019-03-26T06:21:31.318Z,99.90
2019-03-26T06:24:03.556Z,99.90
2019-03-26T06:26:35.439Z,99.90
2019-03-26T06:29:08.369Z,99.90
2019-03-26T06:31:40.356Z,99.90
2019-03-26T06:34:12.595Z,99.90
2019-03-26T06:36:44.625Z,99.90
2019-03-26T06:39:16.937Z,93.60
2019-03-26T06:41:48.945Z,96.00
2019-03-26T06:44:20.945Z,90.10
2019-03-26T06:46:52.909Z,89.30
2019-03-26T06:49:24.782Z,84.60
2019-03-26T06:51:57.958Z,92.10
2019-03-26T06:54:29.978Z,89.90
2019-03-26T06:57:01.872Z,91.70
2019-03-26T06:59:34.003Z,92.10
2019-03-26T07:02:06.205Z,78.80
2019-03-26T07:04:46.846Z,78.90
2019-03-26T07:07:30.959Z,81.70
2019-03-26T07:09:52.645Z,87.00
2019-03-26T07:12:24.483Z,79.50
2019-03-26T07:14:56.569Z,77.10
2019-03-26T07:17:47.095Z,77.50
2019-03-26T07:20:19.178Z,77.70
2019-03-26T07:22:51.277Z,66.50
2019-03-26T07:25:23.342Z,67.10
2019-03-26T07:27:55.496Z,67.90
2019-03-26T07:30:44.281Z,67.00
2019-03-26T07:33:16.361Z,69.70
2019-03-26T07:35:48.881Z,65.20
2019-03-26T07:38:20.854Z,64.70
2019-03-26T07:40:53.544Z,61.70
2019-03-26T07:43:25.317Z,62.00
2019-03-26T07:45:57.389Z,57.70
2019-03-26T07:48:29.190Z,56.70
2019-03-26T07:51:01.442Z,55.00
2019-03-26T07:53:33.411Z,55.50
2019-03-26T07:56:05.406Z,51.70
2019-03-26T07:58:39.550Z,51.90
2019-03-26T08:01:12.180Z,48.50
2019-03-26T08:03:43.988Z,50.60
2019-03-26T08:06:16.741Z,50.30
2019-03-26T08:08:48.844Z,48.20
2019-03-26T08:11:20.941Z,47.10
2019-03-26T08:13:52.843Z,44.70
2019-03-26T08:16:25.107Z,46.00
2019-03-26T08:18:57.176Z,47.60
2019-03-26T08:21:29.482Z,44.40
2019-03-26T08:24:01.379Z,46.10
2019-03-26T08:26:34.325Z,47.10
2019-03-26T08:29:06.444Z,45.60
2019-03-26T08:31:38.407Z,43.80
2019-03-26T08:34:29.019Z,41.90
2019-03-26T08:37:01.160Z,42.60
2019-03-26T08:39:33.994Z,44.10
2019-03-26T08:42:06.765Z,43.80
2019-03-26T08:44:38.737Z,43.20
2019-03-26T08:47:10.701Z,43.00
2019-03-26T08:49:43.696Z,42.60
2019-03-26T08:52:16.104Z,43.10
2019-03-26T08:54:50.776Z,42.40
2019-03-26T08:57:23.180Z,42.20
2019-03-26T08:59:55.281Z,42.70
2019-03-26T09:02:27.273Z,43.30
2019-03-26T09:04:59.158Z,44.40
2019-03-26T09:07:31.873Z,43.00
2019-03-26T09:10:03.909Z,43.30
2019-03-26T09:12:39.251Z,44.70
2019-03-26T09:15:14.272Z,42.10
2019-03-26T09:17:45.051Z,44.60
2019-03-26T09:20:17.088Z,41.90
2019-03-26T09:22:49.469Z,42.00
2019-03-26T09:25:21.343Z,42.50
2019-03-26T09:27:53.465Z,43.50
2019-03-26T09:30:25.458Z,40.80
2019-03-26T09:32:57.401Z,42.70
2019-03-26T09:35:29.521Z,42.20
2019-03-26T09:38:01.506Z,42.00
2019-03-26T09:40:33.412Z,41.70
2019-03-26T09:43:05.708Z,41.60
2019-03-26T09:45:37.542Z,42.50
2019-03-26T09:48:09.693Z,42.80
2019-03-26T09:50:41.715Z,43.20
2019-03-26T09:53:13.888Z,42.10
2019-03-26T09:55:46.016Z,41.80
2019-03-26T09:58:18.190Z,42.30
2019-03-26T10:00:50.356Z,41.80
2019-03-26T10:03:22.572Z,41.40
2019-03-26T10:05:54.529Z,42.10
2019-03-26T10:08:26.609Z,41.30
2019-03-26T10:10:58.518Z,39.50
2019-03-26T10:13:30.564Z,38.50
2019-03-26T10:16:02.477Z,38.90
2019-03-26T10:18:45.293Z,38.20
2019-03-26T10:21:17.532Z,36.80
2019-03-26T10:23:50.617Z,38.00
2019-03-26T10:26:22.479Z,38.00
2019-03-26T10:28:54.394Z,40.50
2019-03-26T10:31:26.269Z,40.00
2019-03-26T10:33:58.473Z,39.30
2019-03-26T10:36:30.592Z,39.60
2019-03-26T10:39:05.388Z,40.60
2019-03-26T10:41:36.398Z,40.60
2019-03-26T10:44:08.332Z,38.50
2019-03-26T10:46:44.393Z,40.40
2019-03-26T10:49:15.788Z,40.70
2019-03-26T10:51:47.802Z,39.30
2019-03-26T10:54:19.985Z,40.10
2019-03-26T10:56:52.025Z,39.50
2019-03-26T10:59:24.042Z,39.90
2019-03-26T11:01:59.778Z,42.00
2019-03-26T11:04:30.544Z,42.90
2019-03-26T11:07:02.513Z,41.80
2019-03-26T11:09:34.614Z,41.60
2019-03-26T11:12:06.625Z,42.10
2019-03-26T11:14:38.829Z,42.20
2019-03-26T11:17:11.109Z,42.80
2019-03-26T11:19:46.174Z,44.10
2019-03-26T11:22:16.641Z,43.40
2019-03-26T11:24:48.841Z,43.80
2019-03-26T11:27:20.929Z,43.70
2019-03-26T11:29:53.001Z,44.50
2019-03-26T11:32:25.076Z,43.70
2019-03-26T11:35:08.333Z,43.10
2019-03-26T11:37:40.630Z,43.50
2019-03-26T11:40:13.958Z,43.00
2019-03-26T11:42:46.698Z,43.60
2019-03-26T11:45:20.043Z,44.10
2019-03-26T11:47:51.947Z,44.50
2019-03-26T11:50:24.035Z,44.00
2019-03-26T11:52:57.197Z,43.80
2019-03-26T11:55:29.362Z,43.70
2019-03-26T11:58:01.642Z,44.80
2019-03-26T12:00:36.179Z,44.90
2019-03-26T12:03:08.438Z,43.80
2019-03-26T12:05:40.529Z,43.70
2019-03-26T12:08:12.323Z,44.80
2019-03-26T12:10:44.357Z,43.50
2019-03-26T12:13:16.272Z,44.40
2019-03-26T12:15:48.140Z,45.20
2019-03-26T12:18:20.159Z,44.10
2019-03-26T12:20:52.071Z,43.90
2019-03-26T12:23:23.871Z,43.40
2019-03-26T12:25:55.971Z,42.80
2019-03-26T12:28:28.050Z,42.90
2019-03-26T12:31:00.163Z,43.50
2019-03-26T12:33:32.212Z,44.10
2019-03-26T12:36:04.298Z,46.10
2019-03-26T12:38:36.056Z,45.70
2019-03-26T12:41:08.222Z,45.70
2019-03-26T12:43:40.498Z,46.70
2019-03-26T12:46:12.680Z,46.00
2019-03-26T12:48:44.759Z,46.90
2019-03-26T12:51:17.503Z,45.90
2019-03-26T12:53:49.621Z,45.50
2019-03-26T12:56:21.797Z,47.80
2019-03-26T12:58:53.880Z,48.00
2019-03-26T13:01:25.832Z,48.30
2019-03-26T13:04:11.666Z,49.10
2019-03-26T13:06:31.469Z,49.40
2019-03-26T13:09:05.194Z,48.70
2019-03-26T13:11:37.429Z,48.90
2019-03-26T13:14:09.415Z,49.60
2019-03-26T13:17:10.188Z,49.10
2019-03-26T13:19:42.158Z,50.00
2019-03-26T13:22:13.879Z,49.50
2019-03-26T13:24:45.850Z,49.50
2019-03-26T13:27:17.926Z,49.70
2019-03-26T13:29:50.882Z,50.50
2019-03-26T13:32:22.764Z,50.40
2019-03-26T13:34:54.725Z,50.20
2019-03-26T13:37:26.656Z,49.90
2019-03-26T13:39:58.553Z,50.20
2019-03-26T13:42:30.701Z,49.30
2019-03-26T13:45:02.789Z,49.70
2019-03-26T13:47:34.947Z,49.70
2019-03-26T13:50:07.182Z,50.10
2019-03-26T13:52:39.275Z,50.50
2019-03-26T13:55:12.420Z,50.20
2019-03-26T13:57:44.355Z,50.50
2019-03-26T14:00:17.858Z,50.00
2019-03-26T14:02:49.639Z,49.50
2019-03-26T14:05:27.913Z,49.00
2019-03-26T14:07:59.968Z,49.90
2019-03-26T14:10:40.698Z,49.80
2019-03-26T14:13:05.804Z,50.20
2019-03-26T14:15:37.870Z,49.70
2019-03-26T14:18:10.042Z,51.60
2019-03-26T14:20:42.172Z,50.20
2019-03-26T14:23:21.589Z,50.60
2019-03-26T14:25:55.782Z,49.40
2019-03-26T14:28:30.848Z,51.30
2019-03-26T14:31:04.594Z,52.20
2019-03-26T14:33:40.129Z,51.80
2019-03-26T14:36:13.486Z,52.00
2019-03-26T14:38:47.047Z,51.80
2019-03-26T14:41:20.076Z,52.60
2019-03-26T14:43:51.750Z,52.90
2019-03-26T14:46:24.099Z,53.50
2019-03-26T14:48:56.145Z,53.20
2019-03-26T14:51:28.186Z,53.30
2019-03-26T14:53:59.989Z,53.40
2019-03-26T14:56:32.316Z,52.40
2019-03-26T14:59:04.281Z,54.00
2019-03-26T15:01:36.165Z,54.10
2019-03-26T15:04:08.137Z,53.10
2019-03-26T15:06:40.327Z,55.40
2019-03-26T15:09:12.597Z,55.30
2019-03-26T15:11:45.109Z,54.80
2019-03-26T15:14:16.962Z,54.70
2019-03-26T15:16:48.882Z,55.80
2019-03-26T15:19:21.021Z,55.30
2019-03-26T15:21:53.766Z,55.30
2019-03-26T15:24:27.928Z,55.20
2019-03-26T15:27:01.235Z,56.30
2019-03-26T15:29:42.104Z,57.30
2019-03-26T15:32:19.153Z,57.40
2019-03-26T15:34:51.592Z,58.30
2019-03-26T15:37:23.801Z,59.40
2019-03-26T15:39:55.860Z,60.20
2019-03-26T15:42:28.068Z,61.40
2019-03-26T15:45:00.392Z,62.10
2019-03-26T15:47:32.399Z,63.80
2019-03-26T15:50:04.459Z,67.40
2019-03-26T15:52:36.528Z,70.40
2019-03-26T15:55:08.516Z,70.20
2019-03-26T15:57:40.525Z,69.70
2019-03-26T16:00:12.502Z,71.80
2019-03-26T16:02:45.003Z,71.30
2019-03-26T16:05:16.933Z,73.10
2019-03-26T16:07:49.056Z,74.20
2019-03-26T16:10:21.969Z,75.00
2019-03-26T16:12:56.693Z,78.50
2019-03-26T16:15:43.014Z,78.20
2019-03-26T16:18:03.754Z,77.60
2019-03-26T16:20:36.442Z,78.80
2019-03-26T16:23:09.380Z,81.60
2019-03-26T16:25:42.099Z,83.10
2019-03-26T16:28:15.107Z,88.30
2019-03-26T16:30:47.245Z,90.30
2019-03-26T16:33:19.307Z,91.60
2019-03-26T20:03:54.176Z,99.90
2019-03-26T20:06:30.892Z,99.90
2019-03-26T20:09:07.365Z,99.90
2019-03-26T20:11:42.765Z,99.90
2019-03-26T20:14:17.307Z,99.90
2019-03-26T20:16:52.232Z,99.90
2019-03-26T20:19:27.088Z,99.90
2019-03-26T20:22:01.068Z,99.90
2019-03-26T20:24:35.193Z,99.90
2019-03-26T20:27:10.418Z,99.90
2019-03-26T20:29:45.185Z,99.90
2019-03-26T20:32:19.656Z,99.90
2019-03-26T20:34:54.795Z,99.90
2019-03-26T20:37:28.848Z,99.90
2019-03-26T20:40:03.529Z,99.90
2019-03-26T20:42:37.251Z,99.90
2019-03-26T20:45:14.492Z,99.90
2019-03-26T20:47:49.123Z,99.90
2019-03-26T20:50:25.128Z,99.90
2019-03-26T20:52:59.317Z,99.90
2019-03-26T20:55:34.684Z,99.90
2019-03-26T20:58:08.488Z,99.90
2019-03-26T21:00:42.756Z,99.90
2019-03-26T21:03:16.560Z,99.90
2019-03-26T21:05:51.302Z,99.90
2019-03-26T21:08:25.297Z,99.90
2019-03-26T21:11:00.214Z,99.90
2019-03-26T21:13:36.020Z,99.90
2019-03-26T21:16:09.608Z,99.90
2019-03-26T21:18:42.166Z,99.90
2019-03-26T21:21:18.453Z,99.90
2019-03-26T21:23:51.040Z,99.90
2019-03-26T21:26:25.196Z,99.90
2019-03-26T21:29:00.514Z,99.90
2019-03-26T21:31:36.491Z,99.90
2019-03-26T21:34:12.574Z,99.90
2019-03-26T21:36:46.847Z,99.90
2019-03-26T21:39:21.143Z,99.90
2019-03-26T21:41:55.240Z,99.90
2019-03-26T21:44:28.466Z,99.90
2019-03-26T21:47:02.748Z,99.90
2019-03-26T21:49:37.251Z,99.90
2019-03-26T21:52:28.275Z,99.90
2019-03-26T21:55:02.607Z,99.90
2019-03-26T21:57:35.045Z,99.90
2019-03-26T22:00:12.359Z,99.90
2019-03-26T22:02:48.135Z,99.90
2019-03-26T22:05:22.205Z,99.90
2019-03-26T22:07:55.444Z,99.90
2019-03-26T22:10:29.219Z,99.90
2019-03-26T22:13:20.690Z,99.90
2019-03-26T22:15:54.960Z,99.90
2019-03-26T22:18:29.668Z,99.90
2019-03-26T22:21:05.093Z,99.90
2019-03-26T22:23:39.914Z,99.90
2019-03-26T22:26:13.504Z,99.90
2019-03-26T22:28:46.896Z,99.90
2019-03-26T22:31:19.367Z,99.90
2019-03-26T22:33:52.343Z,99.90
2019-03-26T22:36:25.636Z,99.90
2019-03-26T22:38:59.217Z,99.90
2019-03-26T22:41:33.392Z,99.90
2019-03-26T22:44:07.290Z,99.90
2019-03-26T22:46:43.497Z,99.90
2019-03-26T22:49:18.183Z,99.90
2019-03-26T22:51:51.185Z,99.90
2019-03-26T22:54:26.411Z,99.90
2019-03-26T22:56:59.781Z,99.90
2019-03-26T22:59:35.016Z,99.90
2019-03-26T23:02:09.955Z,99.90
2019-03-26T23:04:44.183Z,99.90
2019-03-26T23:07:18.747Z,99.90
2019-03-26T23:09:53.414Z,99.90
2019-03-26T23:12:27.572Z,99.90
2019-03-26T23:15:01.761Z,99.90
2019-03-26T23:17:36.768Z,99.90
2019-03-26T23:20:10.596Z,99.90
2019-03-26T23:22:44.581Z,99.90
2019-03-26T23:25:17.890Z,99.90
2019-03-26T23:27:52.558Z,99.90
2019-03-26T23:30:26.231Z,99.90
2019-03-26T23:33:00.714Z,99.90
2019-03-26T23:35:51.660Z,99.90
2019-03-26T23:38:26.313Z,99.90
2019-03-26T23:41:00.392Z,99.90
2019-03-26T23:43:33.334Z,99.90
2019-03-26T23:46:06.368Z,99.90
2019-03-26T23:48:38.470Z,99.90
2019-03-26T23:51:11.649Z,99.90
2019-03-26T23:53:45.828Z,99.90
2019-03-26T23:56:19.743Z,99.90
2019-03-26T23:58:53.068Z,99.90
